Time;durP1;ratioP1;P1;durP2;ratioP2;P2;SDS_P1;SDS_P2;PMS_P1;PMS_P2;Temp;Humidity;BMP_temperature;BMP_pressure;BME280_temperature;BME280_humidity;BME280_pressure;Samples;Min_cycle;Max_cycle;Signal;HPM_P1;HPM_P2
2021/04/03 00:00:31;;;;;;;8.77;4.65;;;;;;;5.35;61.41;101110.84;5008235;28;20042;-72
2021/04/03 00:02:57;;;;;;;9.32;4.28;;;;;;;5.39;61.06;101119.34;5008921;28;20030;-71
2021/04/03 00:05:24;;;;;;;8.25;4.70;;;;;;;5.28;62.48;101118.28;5009137;28;20654;-75
2021/04/03 00:07:50;;;;;;;7.47;4.70;;;;;;;5.29;62.04;101127.84;5000998;28;20502;-73
2021/04/03 00:10:21;;;;;;;8.60;4.20;;;;;;;5.30;61.66;101134.75;5008663;28;20033;-71
2021/04/03 00:12:47;;;;;;;;;;;;;;;5.42;61.04;101137.50;5003597;28;20042;-73
2021/04/03 00:15:13;;;;;;;9.23;5.13;;;;;;;5.33;61.98;101129.28;5008192;28;20036;-72
2021/04/03 00:17:38;;;;;;;8.77;4.53;;;;;;;5.41;61.29;101135.78;5008965;28;20092;-74
2021/04/03 00:20:13;;;;;;;8.13;3.97;;;;;;;5.40;61.84;101128.88;5008331;28;20030;-71
2021/04/03 00:22:38;;;;;;;14.38;4.65;;;;;;;5.48;61.66;101131.81;5007067;28;20049;-72
2021/04/03 00:25:05;;;;;;;10.85;4.43;;;;;;;5.47;61.38;101123.13;5011787;28;20049;-72
2021/04/03 00:27:31;;;;;;;8.15;3.92;;;;;;;5.46;62.19;101123.25;5012686;28;20129;-71
2021/04/03 00:29:56;;;;;;;9.95;4.18;;;;;;;5.48;61.62;101116.94;5006819;28;20133;-73
2021/04/03 00:32:22;;;;;;;7.95;4.03;;;;;;;5.49;61.15;101109.91;5011612;28;20049;-72
2021/04/03 00:34:47;;;;;;;7.63;3.80;;;;;;;5.46;60.87;101102.25;5005986;28;20038;-72
2021/04/03 00:37:12;;;;;;;7.03;3.67;;;;;;;5.53;60.10;101103.50;5012866;28;20037;-72
2021/04/03 00:39:38;;;;;;;5.85;3.20;;;;;;;5.57;59.79;101112.00;5013124;28;20084;-73
2021/04/03 00:42:14;;;;;;;8.63;3.60;;;;;;;5.61;59.67;101110.84;5012623;28;20041;-74
2021/04/03 00:44:45;;;;;;;6.00;3.67;;;;;;;5.65;59.09;101102.66;5011582;28;20069;-71
2021/04/03 00:47:12;;;;;;;5.03;2.95;;;;;;;5.61;60.85;101106.44;5012026;28;20041;-72
2021/04/03 00:49:37;;;;;;;6.20;3.03;;;;;;;5.60;61.27;101102.16;5011715;28;20044;-73
2021/04/03 00:52:07;;;;;;;3.90;2.65;;;;;;;5.64;62.14;101103.59;5011621;28;20398;-72
2021/04/03 00:54:33;;;;;;;5.93;3.15;;;;;;;5.64;61.32;101103.59;5005981;28;20034;-72
2021/04/03 00:56:58;;;;;;;5.28;2.83;;;;;;;5.58;61.43;101101.41;5011484;28;20030;-73
2021/04/03 00:59:24;;;;;;;5.07;2.95;;;;;;;5.58;63.78;101100.53;5011406;28;20038;-72
2021/04/03 01:01:49;;;;;;;6.15;3.33;;;;;;;5.60;60.85;101102.16;5011601;28;20040;-72
2021/04/03 01:04:14;;;;;;;8.48;3.42;;;;;;;5.60;61.54;101098.66;5010689;28;20202;-72
2021/04/03 01:06:40;;;;;;;5.57;2.60;;;;;;;5.66;60.83;101096.47;5009894;28;20266;-71
2021/04/03 01:09:05;;;;;;;6.88;2.80;;;;;;;5.77;60.20;101105.38;5010309;28;20438;-72
2021/04/03 01:11:35;;;;;;;5.40;2.78;;;;;;;5.80;60.80;101107.81;5000209;28;20403;-74
2021/04/03 01:14:20;;;;;;;5.45;3.10;;;;;;;5.85;61.21;101108.31;4992876;28;20081;-71
2021/04/03 01:17:08;;;;;;;5.78;3.05;;;;;;;5.92;61.24;101099.91;5009781;28;20034;-72
2021/04/03 01:20:04;;;;;;;5.18;2.92;;;;;;;5.90;62.67;101099.16;5010790;28;20391;-73
2021/04/03 01:22:40;;;;;;;5.90;2.95;;;;;;;5.94;62.75;101089.34;5005230;28;20041;-72
2021/04/03 01:25:32;;;;;;;5.75;2.75;;;;;;;5.97;61.48;101096.97;5009351;28;20381;-71
2021/04/03 01:28:22;;;;;;;5.70;3.60;;;;;;;5.85;60.70;101084.69;5001782;28;20042;-71
2021/04/03 01:30:49;;;;;;;6.73;3.37;;;;;;;5.77;61.66;101087.84;5006044;28;20498;-72
2021/04/03 01:33:19;;;;;;;7.95;3.00;;;;;;;5.77;62.72;101094.88;5002950;28;20064;-73
2021/04/03 01:35:48;;;;;;;5.43;3.75;;;;;;;5.75;61.48;101092.38;5003381;28;20030;-72
2021/04/03 01:38:36;;;;;;;6.32;3.08;;;;;;;5.70;62.83;101089.22;5002248;28;20116;-72
2021/04/03 01:41:02;;;;;;;5.70;3.00;;;;;;;5.64;61.55;101092.25;5009290;28;20111;-74
2021/04/03 01:43:34;;;;;;;7.05;3.40;;;;;;;5.59;63.02;101089.97;4991976;28;20031;-71
2021/04/03 01:46:00;;;;;;;6.45;3.03;;;;;;;5.59;62.66;101100.44;5004672;28;20491;-74
2021/04/03 01:48:26;;;;;;;7.07;3.13;;;;;;;5.67;63.17;101092.03;5005984;28;20460;-71
2021/04/03 01:50:52;;;;;;;7.03;3.10;;;;;;;5.72;61.65;101085.56;5009550;28;20320;-71
2021/04/03 01:53:21;;;;;;;8.15;4.05;;;;;;;5.71;60.55;101088.28;5005552;28;20053;-74
2021/04/03 01:55:49;;;;;;;4.65;2.50;;;;;;;5.77;60.83;101084.38;5010238;28;20526;-73
2021/04/03 01:58:15;;;;;;;4.68;2.40;;;;;;;5.85;61.37;101089.94;5009478;28;20061;-75
2021/04/03 02:00:41;;;;;;;4.93;2.55;;;;;;;5.90;59.52;101074.72;5010163;28;20109;-71
2021/04/03 02:03:09;;;;;;;5.32;2.75;;;;;;;5.91;60.76;101073.75;5010699;28;20029;-73
2021/04/03 02:05:36;;;;;;;5.45;2.75;;;;;;;5.88;62.15;101082.69;5009849;28;20434;-72
2021/04/03 02:08:02;;;;;;;5.40;2.22;;;;;;;5.91;60.97;101077.22;5007212;28;20033;-75
2021/04/03 02:10:30;;;;;;;4.47;2.72;;;;;;;5.95;60.46;101086.56;5010036;28;20088;-71
2021/04/03 02:12:55;;;;;;;5.95;2.90;;;;;;;5.94;59.84;101091.97;5009432;28;20029;-72
2021/04/03 02:15:22;;;;;;;5.90;2.70;;;;;;;5.94;58.75;101091.97;5009533;28;20404;-72
2021/04/03 02:17:50;;;;;;;5.78;2.22;;;;;;;5.93;59.06;101091.09;4994306;28;20134;-72
2021/04/03 02:20:16;;;;;;;5.07;2.53;;;;;;;5.90;60.85;101103.56;5009115;28;20034;-72
2021/04/03 02:22:43;;;;;;;5.15;2.92;;;;;;;5.93;59.35;101090.22;5010231;28;20040;-71
2021/04/03 02:25:13;;;;;;;5.50;2.30;;;;;;;5.98;58.89;101098.66;4992173;28;20072;-73
2021/04/03 02:27:40;;;;;;;3.78;2.10;;;;;;;6.01;61.44;101092.38;5010588;28;20034;-75
2021/04/03 02:30:15;;;;;;;2.65;1.95;;;;;;;6.02;60.71;101099.28;5005481;28;20049;-71
2021/04/03 02:32:48;;;;;;;4.82;2.25;;;;;;;6.09;58.56;101101.38;5009340;28;20038;-74
2021/04/03 02:35:18;;;;;;;6.18;2.40;;;;;;;6.07;59.80;101103.25;5002186;28;20038;-74
2021/04/03 02:37:51;;;;;;;5.43;2.10;;;;;;;6.15;58.48;101094.84;5005410;28;20041;-72
2021/04/03 02:40:19;;;;;;;3.63;2.03;;;;;;;6.11;58.37;101099.47;5003879;28;20030;-72
2021/04/03 02:43:02;;;;;;;5.30;2.20;;;;;;;6.13;58.25;101102.84;5009397;28;20037;-72
2021/04/03 02:45:30;;;;;;;5.30;2.20;;;;;;;6.06;59.49;101111.25;5008579;28;20038;-72
2021/04/03 02:48:02;;;;;;;4.13;2.28;;;;;;;6.03;59.26;101106.19;4984137;28;20030;-71
2021/04/03 02:50:36;;;;;;;4.60;2.50;;;;;;;5.93;60.14;101112.09;5009733;28;20408;-71
2021/04/03 02:53:03;;;;;;;7.63;3.17;;;;;;;5.87;60.02;101112.50;5005676;28;20402;-72
2021/04/03 02:55:31;;;;;;;4.65;2.67;;;;;;;5.88;60.51;101113.34;5007255;28;20040;-75
2021/04/03 02:57:59;;;;;;;4.15;2.45;;;;;;;5.84;61.30;101112.72;5009357;28;20121;-71
2021/04/03 03:00:26;;;;;;;7.00;2.60;;;;;;;5.76;60.70;101107.16;5008904;28;20096;-71
2021/04/03 03:02:53;;;;;;;5.82;2.60;;;;;;;5.86;59.34;101110.81;5006153;28;20030;-71
2021/04/03 03:05:18;;;;;;;5.45;2.35;;;;;;;5.83;59.52;101105.78;5002472;28;20490;-73
2021/04/03 03:07:47;;;;;;;5.55;2.90;;;;;;;5.88;58.71;101105.47;5008981;28;20125;-75
2021/04/03 03:10:15;;;;;;;7.32;2.10;;;;;;;5.91;59.53;101110.50;5008517;28;20034;-72
2021/04/03 03:12:43;;;;;;;5.20;2.10;;;;;;;5.95;58.34;101102.34;5003104;28;20117;-72
2021/04/03 03:15:09;;;;;;;4.38;2.15;;;;;;;5.97;58.42;101110.09;5008904;28;20042;-71
2021/04/03 03:17:36;;;;;;;4.55;2.08;;;;;;;6.07;58.24;101116.38;5009805;28;20507;-71
2021/04/03 03:20:03;;;;;;;3.88;1.80;;;;;;;6.04;58.59;101105.28;5008348;28;20040;-73
2021/04/03 03:22:28;;;;;;;4.00;1.80;;;;;;;6.04;58.32;101098.22;4991267;28;20038;-75
2021/04/03 03:24:54;;;;;;;5.28;1.90;;;;;;;6.01;58.28;101102.88;4987888;28;20380;-73
2021/04/03 03:27:20;;;;;;;4.97;2.55;;;;;;;6.03;58.62;101101.81;4993006;28;20130;-72
2021/04/03 03:29:46;;;;;;;3.13;1.73;;;;;;;6.06;58.88;101113.88;5002655;28;20474;-71
2021/04/03 03:32:11;;;;;;;4.70;2.13;;;;;;;6.00;58.83;101104.63;5006472;28;20034;-72
2021/04/03 03:34:37;;;;;;;4.88;2.13;;;;;;;5.95;59.68;101110.19;4998638;28;20041;-72
2021/04/03 03:37:03;;;;;;;5.55;2.10;;;;;;;5.98;59.58;101114.41;5007431;28;20034;-73
2021/04/03 03:39:29;;;;;;;4.88;2.20;;;;;;;5.92;59.61;101104.31;5009255;28;20046;-72
2021/04/03 03:41:57;;;;;;;5.53;2.10;;;;;;;5.93;59.73;101105.97;5009455;28;20029;-71
2021/04/03 03:44:23;;;;;;;4.95;2.20;;;;;;;5.89;59.76;101107.16;5008630;28;20445;-73
2021/04/03 03:46:48;;;;;;;5.57;2.38;;;;;;;5.83;60.35;101108.41;5008845;28;20037;-74
2021/04/03 03:49:13;;;;;;;4.57;2.60;;;;;;;5.83;60.08;101107.56;4993189;28;20053;-73
2021/04/03 03:51:39;;;;;;;6.03;3.17;;;;;;;5.80;60.54;101108.63;5002502;28;20037;-72
2021/04/03 03:54:04;;;;;;;6.25;2.85;;;;;;;5.80;60.23;101111.25;5004052;28;20592;-72
2021/04/03 03:56:30;;;;;;;4.35;2.58;;;;;;;5.77;60.93;101115.84;5008600;28;20095;-72
2021/04/03 03:58:55;;;;;;;6.30;2.38;;;;;;;5.79;60.73;101114.81;5002793;28;20035;-73
2021/04/03 04:01:20;;;;;;;5.35;2.67;;;;;;;5.65;62.59;101114.91;5011138;28;20030;-71
2021/04/03 04:03:46;;;;;;;3.83;2.47;;;;;;;5.67;61.45;101113.03;5011423;28;20037;-73
2021/04/03 04:06:11;;;;;;;5.00;2.42;;;;;;;5.64;61.96;101118.50;5009605;28;20131;-73
2021/04/03 04:08:36;;;;;;;5.13;2.40;;;;;;;5.57;62.15;101122.50;5007445;28;20505;-71
2021/04/03 04:11:02;;;;;;;4.82;2.28;;;;;;;5.51;61.67;101115.88;5012262;28;20021;-75
2021/04/03 04:13:27;;;;;;;2.80;1.80;;;;;;;5.41;62.48;101118.31;5012925;28;20573;-71
2021/04/03 04:15:53;;;;;;;5.30;2.20;;;;;;;5.29;62.47;101113.84;4994151;28;20022;-71
2021/04/03 04:18:18;;;;;;;4.72;1.95;;;;;;;5.21;64.06;101119.63;5012247;28;20527;-74
2021/04/03 04:20:43;;;;;;;7.03;2.85;;;;;;;5.05;64.16;101116.34;5011521;28;20034;-70
2021/04/03 04:23:09;;;;;;;4.45;2.08;;;;;;;4.97;63.63;101129.13;5012317;28;20574;-70
2021/04/03 04:25:34;;;;;;;3.80;2.28;;;;;;;4.88;64.38;101126.16;5003095;28;20315;-72
2021/04/03 04:27:59;;;;;;;3.97;2.30;;;;;;;4.81;64.30;101131.91;5006533;28;20181;-70
2021/04/03 04:30:27;;;;;;;3.63;2.20;;;;;;;4.76;64.72;101128.75;4998099;28;20400;-71
2021/04/03 04:32:52;;;;;;;5.20;2.40;;;;;;;4.64;65.03;101139.06;4989471;28;20088;-74
2021/04/03 04:35:17;;;;;;;3.65;2.30;;;;;;;4.61;65.63;101135.81;5007187;28;20471;-71
2021/04/03 04:37:43;;;;;;;3.88;2.25;;;;;;;4.56;66.52;101132.66;5007234;28;20574;-73
2021/04/03 04:40:10;;;;;;;7.13;2.55;;;;;;;4.46;66.00;101142.88;4999677;28;20046;-74
2021/04/03 04:42:39;;;;;;;6.20;2.70;;;;;;;4.39;65.49;101147.66;5006708;28;20038;-72
2021/04/03 04:45:05;;;;;;;6.93;2.33;;;;;;;4.41;67.72;101150.16;5009822;28;20030;-74
2021/04/03 04:47:30;;;;;;;6.03;2.33;;;;;;;4.41;65.84;101151.00;5006843;28;20038;-70
2021/04/03 04:49:55;;;;;;;5.57;2.70;;;;;;;4.45;64.68;101155.09;5010769;28;20072;-74
2021/04/03 04:52:20;;;;;;;5.32;2.20;;;;;;;4.43;66.34;101166.63;5011226;28;20026;-72
2021/04/03 04:54:46;;;;;;;5.47;2.67;;;;;;;4.39;67.32;101158.13;5011588;28;20046;-71
2021/04/03 04:57:11;;;;;;;5.50;2.22;;;;;;;4.40;67.60;101161.56;5010329;28;20446;-74
2021/04/03 04:59:36;;;;;;;4.35;2.00;;;;;;;4.40;68.45;101161.56;5009843;28;20242;-72
2021/04/03 05:02:02;;;;;;;5.45;2.60;;;;;;;4.30;68.21;101169.16;5011257;28;20533;-74
2021/04/03 05:04:27;;;;;;;5.05;2.53;;;;;;;4.30;65.64;101169.16;5009348;28;20442;-70
2021/04/03 05:06:53;;;;;;;6.25;2.97;;;;;;;4.34;69.33;101175.03;5008882;28;20121;-74
2021/04/03 05:09:18;;;;;;;4.55;2.63;;;;;;;4.40;66.25;101185.13;5009939;28;20025;-73
2021/04/03 05:11:43;;;;;;;4.88;2.58;;;;;;;4.44;69.31;101194.50;5011725;28;20041;-71
2021/04/03 05:14:09;;;;;;;5.95;2.55;;;;;;;4.57;65.65;101197.19;5007668;28;20037;-72
2021/04/03 05:16:34;;;;;;;5.57;2.50;;;;;;;4.59;65.18;101200.53;4993014;28;20136;-74
2021/04/03 05:19:00;;;;;;;3.83;2.30;;;;;;;4.61;65.34;101198.69;5010218;28;20385;-73
2021/04/03 05:21:26;;;;;;;5.43;2.35;;;;;;;4.65;65.16;101201.00;4990293;28;20050;-75
2021/04/03 05:23:51;;;;;;;4.90;2.10;;;;;;;4.72;65.00;101204.09;5000893;28;20030;-73
2021/04/03 05:26:16;;;;;;;5.93;2.20;;;;;;;4.81;65.13;101207.88;5009452;28;20046;-75
2021/04/03 05:28:44;;;;;;;3.65;2.22;;;;;;;4.86;65.45;101198.81;4996177;28;20050;-73
2021/04/03 05:31:09;;;;;;;5.13;2.30;;;;;;;4.88;64.29;101204.75;5010902;28;20038;-74
2021/04/03 05:33:34;;;;;;;4.20;2.38;;;;;;;4.87;64.58;101205.72;5003657;28;20042;-69
2021/04/03 05:36:00;;;;;;;4.18;2.30;;;;;;;4.90;67.16;101210.75;5006468;28;20037;-73
2021/04/03 05:38:25;;;;;;;4.60;2.67;;;;;;;5.04;68.18;101209.88;5004842;28;20042;-74
2021/04/03 05:40:52;;;;;;;4.20;2.00;;;;;;;5.15;65.24;101209.19;5010895;28;20034;-72
2021/04/03 05:43:18;;;;;;;5.68;2.30;;;;;;;5.24;64.39;101203.34;5006910;28;20038;-73
2021/04/03 05:45:45;;;;;;;6.40;2.20;;;;;;;5.27;63.59;101207.53;4992845;28;20288;-73
2021/04/03 05:48:11;;;;;;;5.50;2.90;;;;;;;5.37;62.96;101220.88;4998711;28;20042;-75
2021/04/03 05:50:36;;;;;;;5.43;2.78;;;;;;;5.47;62.05;101216.72;4991721;28;20034;-72
2021/04/03 05:53:03;;;;;;;7.40;3.00;;;;;;;5.42;62.61;101222.25;5010965;28;20025;-74
2021/04/03 05:55:28;;;;;;;4.68;2.38;;;;;;;5.47;62.57;101217.53;5010350;28;20058;-73
2021/04/03 05:57:54;;;;;;;4.75;2.50;;;;;;;5.85;61.82;101218.53;5009911;28;20064;-73
2021/04/03 06:00:20;;;;;;;4.80;2.00;;;;;;;6.28;60.74;101223.50;5002683;28;20049;-74
2021/04/03 06:02:45;;;;;;;4.47;2.08;;;;;;;6.78;58.87;101219.91;5010227;28;20041;-75
2021/04/03 06:05:13;;;;;;;5.80;2.60;;;;;;;7.36;57.23;101222.69;5010116;28;20406;-72
2021/04/03 06:07:40;;;;;;;6.30;2.60;;;;;;;7.81;55.47;101230.72;5009785;28;20034;-73
2021/04/03 06:10:06;;;;;;;6.47;2.50;;;;;;;8.41;54.89;101235.84;5009522;28;20038;-72
2021/04/03 06:12:45;;;;;;;5.05;1.70;;;;;;;8.73;52.37;101241.22;5009327;28;20041;-70
2021/04/03 06:15:15;;;;;;;4.25;2.40;;;;;;;8.74;52.75;101239.44;4989598;28;20036;-73
2021/04/03 06:17:43;;;;;;;4.00;2.25;;;;;;;8.78;53.99;101243.50;4992436;28;20038;-75
2021/04/03 06:20:09;;;;;;;5.35;2.30;;;;;;;8.73;53.06;101237.75;5006372;28;20692;-71
2021/04/03 06:22:42;;;;;;;3.65;2.00;;;;;;;8.52;52.69;101240.28;5005333;28;20038;-73
2021/04/03 06:25:07;;;;;;;6.13;2.38;;;;;;;8.56;51.83;101247.84;5003669;28;20034;-73
2021/04/03 06:27:33;;;;;;;3.85;1.85;;;;;;;9.14;51.24;101239.69;5010778;28;20046;-71
2021/04/03 06:29:58;;;;;;;4.72;1.90;;;;;;;9.71;50.47;101249.03;5008291;28;20052;-75
2021/04/03 06:32:30;;;;;;;3.90;1.70;;;;;;;10.04;48.45;101246.34;5008793;28;20046;-74
2021/04/03 06:34:57;;;;;;;3.53;2.00;;;;;;;10.76;49.56;101248.88;5009770;28;20038;-76
2021/04/03 06:37:36;;;;;;;4.50;1.65;;;;;;;11.38;46.06;101256.63;5002601;28;20124;-73
2021/04/03 06:40:05;;;;;;;7.20;2.38;;;;;;;12.05;44.04;101250.44;5009570;28;20041;-72
2021/04/03 06:42:40;;;;;;;6.35;2.25;;;;;;;11.94;43.79;101252.41;5008985;28;20049;-71
2021/04/03 06:45:35;;;;;;;3.90;2.28;;;;;;;11.57;42.98;101255.81;5009950;28;20333;-72
2021/04/03 06:48:04;;;;;;;4.43;1.63;;;;;;;11.90;43.21;101257.19;5006025;28;20491;-72
2021/04/03 06:50:49;;;;;;;4.20;2.10;;;;;;;12.42;41.95;101264.69;4991733;28;20030;-74
2021/04/03 06:53:16;;;;;;;3.47;1.90;;;;;;;12.08;42.75;101270.53;5007003;28;20040;-71
2021/04/03 06:55:44;;;;;;;5.35;2.28;;;;;;;11.77;41.86;101269.84;5002629;28;20523;-72
2021/04/03 06:58:11;;;;;;;4.68;1.88;;;;;;;11.69;42.79;101266.09;5004901;28;20038;-71
2021/04/03 07:00:37;;;;;;;3.22;1.80;;;;;;;11.73;42.68;101266.66;5006368;28;20030;-72
2021/04/03 07:03:15;;;;;;;7.05;1.95;;;;;;;11.41;43.92;101264.28;5009597;28;20030;-71
2021/04/03 07:05:41;;;;;;;2.85;1.85;;;;;;;10.49;45.04;101277.75;5008378;28;20026;-73
2021/04/03 07:08:08;;;;;;;4.78;1.85;;;;;;;10.10;45.22;101277.50;5008713;28;20064;-72
2021/04/03 07:10:35;;;;;;;4.55;1.90;;;;;;;10.44;44.50;101272.88;5007209;28;20046;-71
2021/04/03 07:13:01;;;;;;;4.75;2.00;;;;;;;10.19;44.27;101277.56;5002393;28;20484;-75
2021/04/03 07:15:28;;;;;;;6.78;2.20;;;;;;;9.53;45.04;101287.53;5007430;28;20042;-70
2021/04/03 07:17:54;;;;;;;4.55;1.67;;;;;;;9.31;46.55;101291.09;5009364;28;20026;-70
2021/04/03 07:20:22;;;;;;;5.05;1.83;;;;;;;9.69;45.11;101281.81;5006532;28;20833;-70
2021/04/03 07:23:01;;;;;;;6.30;2.00;;;;;;;9.71;45.50;101293.94;5009202;28;20088;-72
2021/04/03 07:25:31;;;;;;;5.50;2.10;;;;;;;9.77;45.33;101296.09;5008762;28;20048;-69
2021/04/03 07:27:57;;;;;;;5.75;2.22;;;;;;;10.32;45.46;101290.63;4991909;28;20049;-70
2021/04/03 07:30:34;;;;;;;4.90;1.70;;;;;;;10.25;44.71;101286.78;5007828;28;20038;-72
2021/04/03 07:33:16;;;;;;;5.45;2.08;;;;;;;11.09;44.02;101299.81;5009019;28;20056;-72
2021/04/03 07:35:52;;;;;;;4.35;1.75;;;;;;;11.44;41.27;101303.72;5012787;28;20038;-72
2021/04/03 07:38:34;;;;;;;6.13;1.77;;;;;;;12.35;39.57;101304.25;5012510;28;20434;-72
2021/04/03 07:41:02;;;;;;;3.58;1.60;;;;;;;12.27;39.64;101309.41;5010373;28;20033;-72
2021/04/03 07:43:44;;;;;;;4.78;2.15;;;;;;;12.46;38.95;101304.03;5013344;28;20034;-72
2021/04/03 07:46:25;;;;;;;5.03;2.00;;;;;;;12.45;38.67;101301.56;5004918;28;20517;-74
2021/04/03 07:48:55;;;;;;;4.25;1.52;;;;;;;12.75;38.46;101306.59;5001393;28;20124;-71
2021/04/03 07:51:20;;;;;;;3.90;1.50;;;;;;;13.28;36.34;101315.69;5009512;28;20368;-72
2021/04/03 07:53:47;;;;;;;5.30;1.60;;;;;;;12.75;37.89;101313.72;5012886;28;20053;-70
2021/04/03 07:56:14;;;;;;;2.92;1.48;;;;;;;13.27;36.94;101315.81;5011645;28;20432;-71
2021/04/03 07:59:00;;;;;;;4.20;1.85;;;;;;;13.89;37.42;101323.88;5009996;28;20531;-68
2021/04/03 08:01:27;;;;;;;2.80;1.23;;;;;;;14.50;36.00;101317.66;5005591;28;20038;-73
2021/04/03 08:03:54;;;;;;;5.82;1.83;;;;;;;14.76;34.68;101327.47;5011633;28;20041;-70
2021/04/03 08:06:29;;;;;;;3.47;1.45;;;;;;;14.24;35.08;101326.47;5002339;28;20089;-68
2021/04/03 08:08:54;;;;;;;2.75;1.35;;;;;;;14.97;33.88;101327.91;5012458;28;20557;-68
2021/04/03 08:11:20;;;;;;;3.53;1.40;;;;;;;14.82;34.05;101337.47;5009806;28;20038;-70
2021/04/03 08:13:48;;;;;;;3.83;1.70;;;;;;;14.81;33.86;101341.97;5004992;28;20092;-70
2021/04/03 08:16:15;;;;;;;3.30;1.55;;;;;;;15.27;33.34;101338.97;5001050;28;20026;-72
2021/04/03 08:18:46;;;;;;;4.57;1.30;;;;;;;14.62;33.85;101332.38;5012516;28;20665;-69
2021/04/03 08:21:11;;;;;;;4.68;1.60;;;;;;;14.27;33.54;101332.47;5005520;28;20038;-73
2021/04/03 08:23:47;;;;;;;3.65;1.60;;;;;;;14.60;35.21;101346.84;4995186;28;20056;-68
2021/04/03 08:26:13;;;;;;;5.13;1.45;;;;;;;15.44;32.96;101350.50;5011509;28;20076;-69
2021/04/03 08:28:38;;;;;;;5.15;1.67;;;;;;;15.85;32.50;101353.25;5012130;28;20053;-68
2021/04/03 08:31:24;;;;;;;4.75;1.70;;;;;;;16.02;32.39;101356.78;5002397;28;20042;-71
2021/04/03 08:33:52;;;;;;;4.07;1.63;;;;;;;16.64;30.66;101356.19;5011132;28;20034;-68
2021/04/03 08:36:26;;;;;;;4.28;1.55;;;;;;;16.64;31.03;101356.19;5011132;28;20040;-69
2021/04/03 08:38:53;;;;;;;2.58;1.30;;;;;;;17.38;29.28;101359.41;4994181;28;20041;-69
2021/04/03 08:41:21;;;;;;;3.17;1.30;;;;;;;17.07;30.19;101352.19;5011002;28;20395;-69
2021/04/03 08:43:48;;;;;;;3.40;1.30;;;;;;;18.49;28.21;101363.34;4994184;28;20037;-70
2021/04/03 08:46:14;;;;;;;5.35;1.63;;;;;;;18.78;28.46;101362.59;5004318;28;20046;-69
2021/04/03 08:48:41;;;;;;;4.03;1.50;;;;;;;18.74;28.31;101355.91;5011723;28;20487;-71
2021/04/03 08:51:08;;;;;;;3.38;1.10;;;;;;;19.23;27.54;101357.97;5008702;28;20034;-69
2021/04/03 08:53:48;;;;;;;4.68;1.67;;;;;;;18.92;25.52;101358.22;5007467;28;20034;-70
2021/04/03 08:56:32;;;;;;;3.55;1.55;;;;;;;17.82;28.49;101372.16;5002760;28;20038;-69
2021/04/03 08:58:59;;;;;;;2.85;1.25;;;;;;;16.58;30.16;101356.84;5011904;28;20105;-70
2021/04/03 09:01:26;;;;;;;4.55;1.63;;;;;;;17.01;29.22;101368.09;5009130;28;20095;-69
2021/04/03 09:03:55;;;;;;;4.43;1.60;;;;;;;17.22;28.46;101354.97;5011938;28;20034;-72
2021/04/03 09:06:50;;;;;;;3.35;1.60;;;;;;;16.91;29.10;101360.28;5006755;28;20433;-69
2021/04/03 09:09:15;;;;;;;3.38;1.40;;;;;;;16.77;29.15;101367.13;5009030;28;20511;-72
2021/04/03 09:11:53;;;;;;;4.83;1.40;;;;;;;17.67;27.42;101364.03;5010875;28;20034;-69
2021/04/03 09:14:35;;;;;;;5.15;1.80;;;;;;;17.32;27.98;101360.09;4993174;28;20061;-69
2021/04/03 09:17:02;;;;;;;4.10;1.63;;;;;;;15.90;29.42;101367.75;5010731;28;20391;-69
2021/04/03 09:19:33;;;;;;;3.92;1.73;;;;;;;15.61;30.08;101370.88;5011397;28;20038;-69
2021/04/03 09:21:59;;;;;;;;;;;;;;;14.26;32.79;101373.38;5011410;28;20406;-68
2021/04/03 09:24:41;;;;;;;5.50;1.80;;;;;;;14.74;32.36;101377.38;5006283;28;19926;-72
2021/04/03 09:27:18;;;;;;;5.50;1.70;;;;;;;14.11;33.21;101383.72;5005373;28;20444;-69
2021/04/03 09:29:54;;;;;;;7.57;2.05;;;;;;;14.08;33.41;101376.06;4995995;28;20526;-70
2021/04/03 09:32:20;;;;;;;6.35;1.85;;;;;;;13.80;35.77;101384.97;5007071;28;20554;-71
2021/04/03 09:34:45;;;;;;;5.32;1.77;;;;;;;14.28;33.37;101376.69;5003006;28;20038;-70
2021/04/03 09:37:17;;;;;;;4.25;1.65;;;;;;;14.26;32.81;101376.88;5009498;28;20034;-71
2021/04/03 09:40:07;;;;;;;5.28;2.20;;;;;;;13.96;33.41;101367.50;5011646;28;20038;-70
2021/04/03 09:42:34;;;;;;;4.43;1.67;;;;;;;12.93;37.18;101367.69;5006380;28;20048;-69
2021/04/03 09:45:05;;;;;;;6.18;1.95;;;;;;;12.77;36.35;101367.47;5003561;28;20125;-69
2021/04/03 09:47:31;;;;;;;4.88;1.67;;;;;;;12.58;37.24;101370.19;5002735;28;20093;-70
2021/04/03 09:49:56;;;;;;;4.75;1.73;;;;;;;12.76;35.59;101368.47;5012747;28;20101;-69
2021/04/03 09:52:21;;;;;;;4.82;1.80;;;;;;;12.80;36.08;101371.66;5012190;28;20506;-70
2021/04/03 09:54:48;;;;;;;5.55;2.22;;;;;;;12.16;39.86;101365.28;4994764;28;20048;-72
2021/04/03 09:57:15;;;;;;;5.18;1.70;;;;;;;12.20;38.64;101367.47;5011972;28;20054;-71
2021/04/03 09:59:42;;;;;;;5.10;1.70;;;;;;;12.29;38.15;101363.16;5012071;28;20034;-69
2021/04/03 10:02:09;;;;;;;4.32;1.38;;;;;;;12.59;37.69;101355.97;5008989;28;20104;-72
2021/04/03 10:04:35;;;;;;;6.50;1.80;;;;;;;12.46;36.86;101358.94;5005126;28;20026;-71
2021/04/03 10:07:00;;;;;;;5.85;1.88;;;;;;;11.90;40.75;101361.38;5011199;28;20053;-72
2021/04/03 10:09:26;;;;;;;5.75;1.98;;;;;;;11.65;39.81;101368.03;5011732;28;20509;-72
2021/04/03 10:11:53;;;;;;;4.13;1.70;;;;;;;11.90;38.15;101363.19;5010401;28;20102;-70
2021/04/03 10:14:18;;;;;;;7.72;1.80;;;;;;;12.01;37.17;101357.75;4995180;28;20034;-69
2021/04/03 10:16:44;;;;;;;6.28;1.73;;;;;;;11.84;37.68;101355.75;5001023;28;20034;-71
2021/04/03 10:19:10;;;;;;;4.80;1.50;;;;;;;11.73;38.21;101361.19;5010132;28;20541;-67
2021/04/03 10:21:35;;;;;;;5.90;1.92;;;;;;;11.80;38.30;101352.56;5009352;28;20030;-72
2021/04/03 10:24:01;;;;;;;8.60;1.80;;;;;;;11.79;39.02;101347.41;4997630;28;20046;-69
2021/04/03 10:26:28;;;;;;;5.00;1.90;;;;;;;11.92;38.30;101363.91;5009500;28;20088;-72
2021/04/03 10:28:54;;;;;;;6.15;1.98;;;;;;;11.99;37.85;101358.84;5004164;28;20033;-69
2021/04/03 10:31:19;;;;;;;4.88;1.38;;;;;;;12.15;37.60;101355.63;5009810;28;20034;-70
2021/04/03 10:33:45;;;;;;;4.47;1.55;;;;;;;12.25;36.58;101364.41;5003973;28;20526;-70
2021/04/03 10:36:11;;;;;;;5.47;1.75;;;;;;;12.07;38.77;101354.53;5009507;28;20030;-71
2021/04/03 10:38:37;;;;;;;6.40;1.98;;;;;;;11.78;39.16;101354.50;5008911;28;20108;-70
2021/04/03 10:41:04;;;;;;;6.43;1.77;;;;;;;12.08;37.61;101358.00;4992168;28;20026;-71
2021/04/03 10:43:30;;;;;;;4.95;1.60;;;;;;;11.73;39.04;101359.41;5004869;28;20038;-72
2021/04/03 10:45:55;;;;;;;5.88;2.00;;;;;;;11.90;39.07;101358.72;5009228;28;20394;-70
2021/04/03 10:48:21;;;;;;;3.97;1.88;;;;;;;12.18;37.47;101358.00;4996472;28;20442;-71
2021/04/03 10:50:46;;;;;;;3.72;1.60;;;;;;;12.10;38.47;101362.19;4994940;28;20149;-70
2021/04/03 10:53:12;;;;;;;5.70;1.70;;;;;;;12.39;38.61;101356.00;5001678;28;20027;-72
2021/04/03 10:55:38;;;;;;;5.75;1.90;;;;;;;12.35;39.60;101349.34;5005702;28;20503;-70
2021/04/03 10:58:03;;;;;;;3.50;1.52;;;;;;;12.61;35.32;101353.97;5006798;28;20088;-71
2021/04/03 11:00:29;;;;;;;5.82;1.70;;;;;;;12.45;36.31;101358.09;5004566;28;20038;-70
2021/04/03 11:02:55;;;;;;;3.17;1.48;;;;;;;12.31;36.81;101353.25;5000905;28;20061;-69
2021/04/03 11:05:21;;;;;;;5.82;1.65;;;;;;;12.09;37.03;101349.09;4993705;28;20030;-70
2021/04/03 11:07:46;;;;;;;4.47;1.80;;;;;;;12.06;36.92;101341.41;5007334;28;20057;-68
2021/04/03 11:10:13;;;;;;;4.57;1.60;;;;;;;11.87;36.91;101340.47;5008452;28;20088;-69
2021/04/03 11:12:39;;;;;;;4.65;1.30;;;;;;;12.01;37.23;101348.94;5000210;28;20038;-69
2021/04/03 11:15:06;;;;;;;3.70;1.50;;;;;;;12.35;36.27;101341.38;4998113;28;20038;-68
2021/04/03 11:17:31;;;;;;;3.55;1.45;;;;;;;12.15;37.33;101337.91;4995518;28;20042;-71
2021/04/03 11:19:56;;;;;;;5.13;1.55;;;;;;;12.01;36.94;101336.56;4997025;28;20029;-69
2021/04/03 11:22:22;;;;;;;5.03;1.85;;;;;;;12.15;37.31;101342.38;5003753;28;20038;-68
2021/04/03 11:24:48;;;;;;;4.20;1.70;;;;;;;12.29;34.95;101328.69;5009477;28;20149;-69
2021/04/03 11:27:13;;;;;;;5.30;1.67;;;;;;;12.47;35.11;101342.03;4994464;28;20038;-70
2021/04/03 11:29:38;;;;;;;5.18;1.80;;;;;;;12.45;34.60;101338.69;4995562;28;20088;-70
2021/04/03 11:32:04;;;;;;;4.90;1.40;;;;;;;12.35;35.68;101338.72;5007510;28;20093;-70
2021/04/03 11:34:32;;;;;;;4.15;1.58;;;;;;;12.42;33.97;101347.78;5004320;28;20121;-70